YGDO weather

Gundaroo Airport
Northern Territory, Australia

Public forecast

Using degrees Celsius for public forecast. Weather courtesy of forecast.io.

METAR (pilot weather report)

Closest report is Canberra International Airport, 15.7 nm (29.0 km) S. Retrieved 2019/03/26 10:00 UTC (16 minutes ago):

YSCB 261000Z AUTO 07008KT 9999 // NCD 12/03 Q1021

TAF (pilot weather forecast)

Closest forecast is Canberra International Airport, 15.7 nm (29.0 km) S. Retrieved 2019/03/26 06:00 UTC (4 hours ago):

TAF YSCB 260516Z 2606/2706 25014KT CAVOK FM260900 11008KT CAVOK FM261400 VRB03KT CAVOK FM270000 06008KT CAVOK